createdAt,value
2018-08-18T00:02:23.078Z,8.80
2018-08-18T00:05:26.840Z,10.10
2018-08-18T00:08:30.575Z,11.30
2018-08-18T00:11:34.240Z,9.03
2018-08-18T00:14:38.015Z,8.93
2018-08-18T00:17:41.743Z,8.60
2018-08-18T00:20:45.466Z,8.97
2018-08-18T00:23:59.618Z,9.20
2018-08-18T00:27:03.449Z,9.60
2018-08-18T00:30:14.259Z,8.97
2018-08-18T00:33:18.066Z,9.27
2018-08-18T00:36:21.869Z,9.60
2018-08-18T00:39:26.090Z,9.83
2018-08-18T00:42:33.585Z,9.27
2018-08-18T00:45:37.313Z,8.50
2018-08-18T00:48:40.969Z,8.73
2018-08-18T00:51:44.785Z,10.40
2018-08-18T00:54:48.374Z,10.00
2018-08-18T00:57:52.144Z,9.77
2018-08-18T01:01:01.115Z,9.40
2018-08-18T01:04:09.720Z,9.40
2018-08-18T01:07:15.884Z,9.47
2018-08-18T01:10:19.648Z,10.20
2018-08-18T01:13:23.268Z,9.80
2018-08-18T01:16:26.950Z,11.13
2018-08-18T01:19:30.694Z,11.17
2018-08-18T01:22:34.399Z,11.07
2018-08-18T01:25:38.171Z,11.07
2018-08-18T01:28:41.865Z,10.77
2018-08-18T01:31:46.021Z,10.77
2018-08-18T01:34:50.794Z,11.60
2018-08-18T01:37:54.476Z,12.97
2018-08-18T01:41:11.394Z,12.53
2018-08-18T01:44:18.999Z,13.67
2018-08-18T01:47:22.905Z,12.83
2018-08-18T01:50:26.594Z,13.00
2018-08-18T01:53:30.313Z,12.13
2018-08-18T01:56:33.920Z,11.70
2018-08-18T01:59:38.874Z,12.60
2018-08-18T02:02:42.534Z,11.93
2018-08-18T02:05:46.405Z,14.20
2018-08-18T02:08:58.258Z,13.70
2018-08-18T02:12:01.962Z,13.60
2018-08-18T02:15:05.634Z,12.50
2018-08-18T02:18:09.326Z,10.60
2018-08-18T02:21:35.786Z,12.33
2018-08-18T02:24:39.644Z,14.20
2018-08-18T02:27:43.409Z,14.17
2018-08-18T02:30:47.125Z,13.53
2018-08-18T02:33:50.772Z,13.13
2018-08-18T02:36:54.576Z,12.20
2018-08-18T02:39:58.259Z,11.83
2018-08-18T02:43:02.121Z,12.00
2018-08-18T02:46:31.477Z,11.37
2018-08-18T02:49:41.273Z,12.60
2018-08-18T02:52:45.081Z,13.20
2018-08-18T02:55:48.882Z,13.17
2018-08-18T02:58:57.741Z,12.17
2018-08-18T03:02:01.525Z,11.50
2018-08-18T03:05:05.745Z,12.70
2018-08-18T03:08:09.874Z,12.03
2018-08-18T03:11:13.526Z,11.47
2018-08-18T03:14:17.252Z,11.40
2018-08-18T03:17:21.016Z,11.20
2018-08-18T03:20:24.739Z,11.20
2018-08-18T03:23:28.342Z,11.70
2018-08-18T03:26:45.510Z,11.40
2018-08-18T03:29:51.984Z,11.70
2018-08-18T03:32:55.735Z,10.43
2018-08-18T03:35:59.573Z,10.20
2018-08-18T03:39:03.510Z,10.70
2018-08-18T03:42:07.140Z,10.60
2018-08-18T03:45:10.928Z,11.93
2018-08-18T03:48:14.648Z,12.20
2018-08-18T03:51:18.635Z,14.00
2018-08-18T03:54:22.434Z,14.50
2018-08-18T03:57:41.551Z,14.00
2018-08-18T04:00:45.281Z,15.33
2018-08-18T04:03:49.003Z,14.80
2018-08-18T04:06:53.931Z,14.43
2018-08-18T04:10:01.699Z,14.00
2018-08-18T04:13:05.436Z,14.90
2018-08-18T04:16:09.248Z,12.77
2018-08-18T04:19:12.983Z,13.53
2018-08-18T04:22:16.991Z,13.80
2018-08-18T04:25:20.826Z,14.60
2018-08-18T04:28:24.438Z,14.93
2018-08-18T04:31:33.047Z,17.03
2018-08-18T04:34:36.703Z,18.33
2018-08-18T04:37:40.641Z,18.03
2018-08-18T04:40:44.316Z,17.33
2018-08-18T04:43:48.148Z,17.90
2018-08-18T04:46:51.796Z,19.20
2018-08-18T04:49:55.503Z,17.00
2018-08-18T04:52:59.216Z,16.97
2018-08-18T04:56:02.866Z,16.90
2018-08-18T04:59:06.596Z,15.63
2018-08-18T05:02:10.448Z,16.40
2018-08-18T05:05:14.373Z,14.70
2018-08-18T05:08:18.053Z,14.23
2018-08-18T05:11:21.701Z,13.60
2018-08-18T05:14:25.383Z,14.63
2018-08-18T05:17:29.079Z,12.90
2018-08-18T05:20:33.389Z,12.20
2018-08-18T05:23:37.092Z,13.10
2018-08-18T05:26:40.753Z,12.30
2018-08-18T05:29:44.673Z,12.30
2018-08-18T05:32:48.450Z,12.27
2018-08-18T05:35:52.143Z,12.00
2018-08-18T05:38:55.835Z,10.40
2018-08-18T05:41:59.550Z,10.93
2018-08-18T05:45:18.477Z,10.33
2018-08-18T05:48:22.154Z,10.97
2018-08-18T05:51:26.005Z,9.90
2018-08-18T05:54:29.634Z,10.17
2018-08-18T05:57:33.338Z,11.40
2018-08-18T06:00:37.321Z,10.60
2018-08-18T06:03:40.952Z,10.23
2018-08-18T06:06:45.660Z,9.50
2018-08-18T06:09:49.294Z,9.80
2018-08-18T06:12:53.067Z,10.70
2018-08-18T06:16:10.513Z,10.30
2018-08-18T06:19:14.347Z,9.60
2018-08-18T06:22:17.991Z,9.63
2018-08-18T06:25:21.943Z,9.20
2018-08-18T06:28:26.368Z,9.57
2018-08-18T06:31:30.274Z,8.90
2018-08-18T06:34:34.703Z,10.10
2018-08-18T06:37:38.540Z,10.67
2018-08-18T06:40:44.640Z,11.20
2018-08-18T06:43:48.388Z,11.60
2018-08-18T06:46:52.059Z,11.53
2018-08-18T06:49:55.808Z,11.67
2018-08-18T06:52:59.662Z,11.67
2018-08-18T06:56:05.343Z,11.10
2018-08-18T06:59:10.362Z,12.40
2018-08-18T07:02:14.320Z,12.47
2018-08-18T07:05:18.999Z,11.77
2018-08-18T07:08:22.654Z,12.27
2018-08-18T07:11:26.815Z,11.97
2018-08-18T07:14:30.528Z,12.47
2018-08-18T07:17:34.339Z,12.37
2018-08-18T07:20:38.124Z,12.33
2018-08-18T07:23:41.807Z,11.83
2018-08-18T07:26:45.434Z,12.00
2018-08-18T07:29:51.036Z,11.90
2018-08-18T07:32:54.914Z,11.67
2018-08-18T07:35:58.584Z,11.00
2018-08-18T07:39:02.639Z,11.37
2018-08-18T07:42:06.304Z,10.90
2018-08-18T07:45:10.093Z,12.07
2018-08-18T07:48:15.002Z,12.83
2018-08-18T07:51:18.724Z,11.00
2018-08-18T07:54:22.630Z,12.00
2018-08-18T07:57:26.451Z,11.10
2018-08-18T08:00:32.904Z,11.80
2018-08-18T08:03:36.528Z,10.90
2018-08-18T08:06:40.278Z,12.17
2018-08-18T08:09:44.970Z,11.57
2018-08-18T08:12:48.937Z,12.10
2018-08-18T08:15:52.575Z,10.83
2018-08-18T08:18:56.365Z,12.00
2018-08-18T08:22:00.749Z,10.53
2018-08-18T08:25:05.422Z,10.00
2018-08-18T08:28:09.133Z,10.57
2018-08-18T08:31:12.830Z,9.80
2018-08-18T08:34:16.503Z,10.13
2018-08-18T08:37:20.230Z,9.07
2018-08-18T08:40:24.786Z,9.23
2018-08-18T08:43:35.437Z,9.40
2018-08-18T08:46:43.378Z,9.03
2018-08-18T08:49:47.131Z,8.77
2018-08-18T08:52:53.224Z,7.97
2018-08-18T08:55:56.905Z,9.73
2018-08-18T08:59:00.844Z,8.00
2018-08-18T09:02:04.839Z,6.90
2018-08-18T09:05:08.885Z,6.70
2018-08-18T09:08:12.630Z,6.60
2018-08-18T09:11:16.279Z,6.50
2018-08-18T09:14:19.971Z,5.50
2018-08-18T09:17:23.598Z,6.07
2018-08-18T09:20:28.176Z,5.33
2018-08-18T09:23:36.009Z,5.67
2018-08-18T09:26:44.900Z,5.23
2018-08-18T09:29:48.540Z,5.40
2018-08-18T09:32:52.263Z,4.67
2018-08-18T09:36:03.922Z,4.70
2018-08-18T09:39:12.858Z,3.90
2018-08-18T09:42:17.819Z,4.50
2018-08-18T09:45:21.646Z,3.77
2018-08-18T09:48:26.004Z,3.97
2018-08-18T09:51:29.681Z,4.30
2018-08-18T09:54:33.380Z,4.10
2018-08-18T09:57:37.232Z,4.40
2018-08-18T10:00:41.677Z,4.80
2018-08-18T10:03:45.313Z,3.97
2018-08-18T10:06:49.220Z,3.47
2018-08-18T10:09:52.839Z,4.47
2018-08-18T10:12:56.551Z,4.10
2018-08-18T10:16:00.231Z,4.07
2018-08-18T10:19:03.976Z,5.10
2018-08-18T10:22:07.777Z,4.90
2018-08-18T10:25:11.472Z,4.50
2018-08-18T10:28:15.301Z,4.90
2018-08-18T10:31:19.001Z,3.93
2018-08-18T10:34:23.887Z,4.30
2018-08-18T10:37:27.621Z,4.60
2018-08-18T10:40:31.445Z,4.30
2018-08-18T10:43:35.220Z,4.27
2018-08-18T10:46:38.952Z,3.80
2018-08-18T10:49:53.908Z,3.90
2018-08-18T10:52:59.017Z,4.80
2018-08-18T10:56:02.725Z,4.80
2018-08-18T10:59:15.637Z,5.43
2018-08-18T11:02:31.888Z,4.10
2018-08-18T11:05:35.721Z,4.60
2018-08-18T11:08:39.562Z,4.93
2018-08-18T11:11:43.276Z,6.00
2018-08-18T11:14:51.122Z,4.83
2018-08-18T11:17:55.273Z,5.03
2018-08-18T11:20:58.935Z,5.00
2018-08-18T11:24:07.361Z,6.07
2018-08-18T11:27:11.166Z,6.30
2018-08-18T11:30:14.832Z,5.10
2018-08-18T11:33:34.936Z,6.27
2018-08-18T11:36:43.752Z,5.50
2018-08-18T11:39:49.426Z,5.90
2018-08-18T11:42:56.347Z,5.53
2018-08-18T11:46:00.016Z,5.07
2018-08-18T11:49:03.848Z,5.70
2018-08-18T11:52:07.693Z,5.20
2018-08-18T11:55:11.370Z,5.10
2018-08-18T11:58:16.759Z,5.40
2018-08-18T12:01:24.613Z,5.10
2018-08-18T12:04:30.237Z,7.67
2018-08-18T12:07:33.902Z,4.60
2018-08-18T12:10:40.766Z,5.80
2018-08-18T12:13:44.522Z,6.83
2018-08-18T12:16:48.972Z,4.43
2018-08-18T12:19:57.465Z,5.47
2018-08-18T12:23:01.192Z,5.17
2018-08-18T12:26:11.528Z,4.67
2018-08-18T12:29:15.267Z,4.90
2018-08-18T12:32:24.027Z,5.20
2018-08-18T12:35:31.611Z,6.20
2018-08-18T12:38:35.508Z,6.87
2018-08-18T12:41:39.267Z,5.37
2018-08-18T12:44:43.792Z,4.63
2018-08-18T12:48:10.016Z,6.30
2018-08-18T12:51:14.993Z,5.23
2018-08-18T12:54:18.758Z,5.50
2018-08-18T12:57:33.541Z,4.17
2018-08-18T13:00:37.274Z,5.70
2018-08-18T13:03:41.012Z,5.30
2018-08-18T13:06:47.264Z,4.27
2018-08-18T13:09:59.504Z,6.23
2018-08-18T13:13:03.254Z,5.83
2018-08-18T13:16:06.988Z,5.63
2018-08-18T13:19:12.009Z,5.90
2018-08-18T13:22:15.906Z,4.27
2018-08-18T13:25:19.672Z,5.00
2018-08-18T13:28:23.546Z,5.80
2018-08-18T13:31:33.797Z,4.20
2018-08-18T13:34:37.508Z,4.90
2018-08-18T13:37:41.268Z,5.70
2018-08-18T13:40:44.948Z,5.47
2018-08-18T13:43:48.690Z,6.10
2018-08-18T13:46:52.554Z,7.47
2018-08-18T13:50:01.312Z,6.17
2018-08-18T13:53:05.083Z,5.60
2018-08-18T13:56:08.934Z,4.97
2018-08-18T13:59:12.629Z,5.43
2018-08-18T14:02:16.359Z,5.83
2018-08-18T14:05:26.083Z,5.33
2018-08-18T14:08:29.963Z,5.13
2018-08-18T14:11:33.684Z,6.10
2018-08-18T14:14:37.374Z,5.10
2018-08-18T14:17:41.733Z,5.30
2018-08-18T14:20:59.019Z,5.17
2018-08-18T14:24:02.784Z,5.50
2018-08-18T14:27:13.078Z,5.17
2018-08-18T14:30:16.818Z,5.10
2018-08-18T14:33:20.595Z,5.73
2018-08-18T14:36:24.654Z,5.70
2018-08-18T14:39:37.223Z,4.80
2018-08-18T14:42:40.859Z,4.63
2018-08-18T14:45:44.567Z,5.23
2018-08-18T14:48:48.248Z,6.07
2018-08-18T14:51:52.025Z,4.80
2018-08-18T14:54:55.641Z,4.90
2018-08-18T14:58:03.496Z,5.90
2018-08-18T15:01:12.260Z,5.23
2018-08-18T15:04:15.872Z,6.53
2018-08-18T15:07:19.541Z,5.27
2018-08-18T15:10:34.250Z,5.43
2018-08-18T15:13:38.090Z,5.93
2018-08-18T15:16:41.823Z,5.93
2018-08-18T15:19:45.565Z,5.57
2018-08-18T15:22:49.279Z,6.60
2018-08-18T15:25:52.933Z,5.30
2018-08-18T15:28:56.813Z,5.90
2018-08-18T15:32:00.556Z,6.87
2018-08-18T15:35:04.305Z,7.07
2018-08-18T15:38:09.330Z,6.70
2018-08-18T15:41:13.303Z,5.13
2018-08-18T15:44:16.975Z,5.87
2018-08-18T15:47:20.647Z,5.07
2018-08-18T15:50:25.079Z,5.80
2018-08-18T15:53:52.623Z,5.00
2018-08-18T15:56:56.312Z,4.87
2018-08-18T15:59:59.997Z,4.90
2018-08-18T16:03:03.876Z,5.10
2018-08-18T16:06:07.742Z,4.87
2018-08-18T16:09:11.492Z,4.27
2018-08-18T16:12:15.208Z,4.87
2018-08-18T16:15:21.257Z,4.30
2018-08-18T16:18:24.993Z,5.40
2018-08-18T16:21:29.699Z,5.40
2018-08-18T16:24:37.396Z,4.70
2018-08-18T16:27:41.118Z,4.50
2018-08-18T16:30:44.897Z,4.60
2018-08-18T16:33:51.318Z,4.70
2018-08-18T16:36:55.029Z,4.83
2018-08-18T16:39:58.788Z,4.17
2018-08-18T16:43:04.663Z,4.80
2018-08-18T16:46:20.271Z,4.43
2018-08-18T16:49:23.979Z,4.30
2018-08-18T16:52:27.672Z,4.77
2018-08-18T16:55:34.269Z,11.60
2018-08-18T16:58:38.124Z,4.47
2018-08-18T17:01:41.808Z,5.50
2018-08-18T17:04:46.300Z,4.60
2018-08-18T17:07:49.980Z,4.57
2018-08-18T17:10:53.761Z,6.50
2018-08-18T17:13:59.421Z,4.97
2018-08-18T17:17:03.134Z,6.40
2018-08-18T17:20:08.119Z,10.77
2018-08-18T17:23:11.906Z,6.20
2018-08-18T17:26:15.650Z,4.77
2018-08-18T17:29:19.281Z,7.50
2018-08-18T17:32:25.506Z,5.07
2018-08-18T17:35:29.230Z,4.50
2018-08-18T17:38:33.011Z,4.20
2018-08-18T17:41:36.749Z,4.17
2018-08-18T17:44:40.403Z,3.80
2018-08-18T17:47:51.195Z,3.80
2018-08-18T17:50:55.578Z,3.70
2018-08-18T17:53:59.451Z,4.20
2018-08-18T17:57:03.601Z,3.87
2018-08-18T18:00:14.439Z,3.80
2018-08-18T18:03:18.184Z,3.60
2018-08-18T18:06:23.359Z,3.80
2018-08-18T18:09:29.712Z,3.47
2018-08-18T18:12:34.722Z,3.90
2018-08-18T18:15:39.438Z,3.80
2018-08-18T18:18:46.331Z,3.60
2018-08-18T18:21:49.995Z,3.37
2018-08-18T18:24:53.731Z,2.97
2018-08-18T18:27:57.680Z,4.13
2018-08-18T18:31:01.391Z,3.60
2018-08-18T18:34:05.264Z,3.87
2018-08-18T18:37:09.082Z,3.30
2018-08-18T18:40:12.983Z,3.40
2018-08-18T18:43:16.706Z,3.10
2018-08-18T18:46:20.366Z,3.53
2018-08-18T18:49:30.734Z,4.30
2018-08-18T18:52:34.811Z,3.43
2018-08-18T18:55:44.409Z,3.57
2018-08-18T18:58:48.161Z,3.50
2018-08-18T19:01:51.885Z,3.47
2018-08-18T19:04:55.817Z,3.70
2018-08-18T19:08:01.837Z,3.20
2018-08-18T19:11:05.656Z,3.30
2018-08-18T19:14:09.407Z,4.30
2018-08-18T19:17:13.123Z,3.90
2018-08-18T19:20:23.277Z,4.07
2018-08-18T19:23:27.037Z,3.47
2018-08-18T19:26:40.998Z,4.37
2018-08-18T19:29:44.802Z,4.30
2018-08-18T19:32:49.924Z,3.90
2018-08-18T19:35:54.604Z,4.27
2018-08-18T19:38:58.381Z,4.20
2018-08-18T19:42:08.555Z,4.60
2018-08-18T19:45:12.361Z,5.70
2018-08-18T19:48:20.612Z,4.70
2018-08-18T19:51:24.337Z,5.13
2018-08-18T19:54:28.000Z,4.83
2018-08-18T19:57:36.686Z,4.70
2018-08-18T20:00:40.376Z,5.17
2018-08-18T20:03:44.112Z,5.30
2018-08-18T20:06:47.918Z,4.90
2018-08-18T20:09:51.548Z,5.40
2018-08-18T20:12:55.342Z,5.53
2018-08-18T20:16:03.421Z,5.77
2018-08-18T20:19:07.150Z,5.43
2018-08-18T20:22:15.618Z,5.20
2018-08-18T20:25:19.380Z,5.90
2018-08-18T20:28:23.029Z,6.13
2018-08-18T20:31:26.751Z,5.90
2018-08-18T20:34:30.579Z,5.73
2018-08-18T20:37:34.233Z,6.23
2018-08-18T20:40:38.027Z,6.37
2018-08-18T20:43:44.005Z,5.47
2018-08-18T20:46:47.647Z,5.77
2018-08-18T20:49:51.328Z,6.50
2018-08-18T20:52:59.263Z,6.00
2018-08-18T20:56:03.606Z,6.10
2018-08-18T20:59:08.061Z,6.37
2018-08-18T21:02:11.782Z,6.67
2018-08-18T21:05:15.472Z,7.70
2018-08-18T21:08:19.651Z,7.63
2018-08-18T21:11:23.367Z,7.73
2018-08-18T21:14:29.359Z,7.53
2018-08-18T21:17:33.017Z,7.63
2018-08-18T21:20:36.741Z,7.93
2018-08-18T21:23:40.476Z,7.90
2018-08-18T21:26:45.392Z,8.00
2018-08-18T21:29:49.031Z,8.67
2018-08-18T21:32:52.736Z,6.80
2018-08-18T21:35:56.477Z,8.37
2018-08-18T21:39:01.907Z,7.87
2018-08-18T21:42:06.054Z,7.77
2018-08-18T21:45:11.659Z,7.30
2018-08-18T21:48:15.214Z,7.70
2018-08-18T21:51:21.975Z,7.77
2018-08-18T21:54:26.491Z,7.10
2018-08-18T21:57:30.925Z,7.90
2018-08-18T22:00:39.944Z,7.67
2018-08-18T22:03:43.702Z,8.30
2018-08-18T22:06:47.400Z,8.73
2018-08-18T22:09:51.133Z,7.87
2018-08-18T22:12:54.892Z,7.60
2018-08-18T22:15:58.611Z,7.70
2018-08-18T22:19:03.819Z,7.73
2018-08-18T22:22:08.535Z,7.97
2018-08-18T22:25:12.476Z,8.43
2018-08-18T22:28:16.027Z,8.60
2018-08-18T22:31:19.684Z,8.13
2018-08-18T22:34:23.468Z,8.90
2018-08-18T22:37:27.244Z,8.63
2018-08-18T22:40:30.869Z,8.30
2018-08-18T22:43:35.789Z,8.67
2018-08-18T22:46:39.450Z,8.60
2018-08-18T22:49:43.083Z,7.83
2018-08-18T22:52:49.234Z,8.73
2018-08-18T22:55:52.859Z,9.00
2018-08-18T22:59:03.200Z,8.20
2018-08-18T23:02:06.860Z,8.40
2018-08-18T23:05:10.659Z,9.20
2018-08-18T23:08:14.255Z,9.57
2018-08-18T23:11:17.948Z,9.87
2018-08-18T23:14:21.589Z,8.60
2018-08-18T23:17:25.224Z,8.67
2018-08-18T23:20:28.953Z,8.60
2018-08-18T23:23:32.679Z,8.40
2018-08-18T23:26:36.325Z,8.90
2018-08-18T23:29:39.945Z,9.67
2018-08-18T23:32:43.695Z,7.97
2018-08-18T23:35:47.461Z,8.70
2018-08-18T23:38:56.343Z,9.00
2018-08-18T23:42:11.005Z,9.40
2018-08-18T23:45:14.688Z,9.90
2018-08-18T23:48:18.380Z,10.20
2018-08-18T23:51:28.333Z,10.13
2018-08-18T23:54:32.974Z,10.57
2018-08-18T23:57:36.554Z,10.30
